createdAt,value
2024-02-17T00:00:13.970Z,10.68
2024-02-17T00:05:15.845Z,9.50
2024-02-17T00:10:17.501Z,9.48
2024-02-17T00:15:19.066Z,9.20
2024-02-17T00:20:20.765Z,8.75
2024-02-17T00:25:22.361Z,8.75
2024-02-17T00:30:24.343Z,8.77
2024-02-17T00:35:25.912Z,8.95
2024-02-17T00:40:28.824Z,9.52
2024-02-17T00:45:31.092Z,9.75
2024-02-17T00:50:32.861Z,9.95
2024-02-17T00:55:35.241Z,11.20
2024-02-17T01:00:38.114Z,10.55
2024-02-17T01:05:40.570Z,12.18
2024-02-17T01:10:43.092Z,11.23
2024-02-17T01:15:45.180Z,10.85
2024-02-17T01:20:46.867Z,11.43
2024-02-17T01:25:48.404Z,10.70
2024-02-17T01:30:50.000Z,11.15
2024-02-17T01:35:51.558Z,11.48
2024-02-17T01:40:53.283Z,11.20
2024-02-17T01:45:55.141Z,11.52
2024-02-17T01:50:57.803Z,11.98
2024-02-17T01:55:59.715Z,10.73
2024-02-17T02:01:01.640Z,10.32
2024-02-17T02:06:03.995Z,10.20
2024-02-17T02:11:08.942Z,9.80
2024-02-17T02:16:10.680Z,8.85
2024-02-17T02:21:12.494Z,9.10
2024-02-17T02:26:14.335Z,7.97
2024-02-17T02:31:15.914Z,8.07
2024-02-17T02:36:18.083Z,8.57
2024-02-17T02:41:19.643Z,8.60
2024-02-17T02:46:21.198Z,8.35
2024-02-17T02:51:22.843Z,8.50
2024-02-17T02:56:25.073Z,8.75
2024-02-17T03:01:26.710Z,8.88
2024-02-17T03:06:30.681Z,8.68
2024-02-17T03:11:34.004Z,8.27
2024-02-17T03:16:35.661Z,9.13
2024-02-17T03:21:37.862Z,9.35
2024-02-17T03:26:39.576Z,9.35
2024-02-17T03:31:41.276Z,9.13
2024-02-17T03:36:43.065Z,9.38
2024-02-17T03:41:44.642Z,9.27
2024-02-17T03:46:46.330Z,8.82
2024-02-17T03:51:48.768Z,9.05
2024-02-17T03:56:50.635Z,9.70
2024-02-17T04:01:56.484Z,9.55
2024-02-17T04:06:58.288Z,9.25
2024-02-17T04:12:00.032Z,9.90
2024-02-17T04:17:01.612Z,10.35
2024-02-17T04:22:03.318Z,10.05
2024-02-17T04:27:05.293Z,9.95
2024-02-17T04:32:07.004Z,10.10
2024-02-17T04:37:08.614Z,10.60
2024-02-17T04:42:10.170Z,10.57
2024-02-17T04:47:11.799Z,10.43
2024-02-17T04:52:13.347Z,10.48
2024-02-17T04:57:15.223Z,10.00
2024-02-17T05:02:17.004Z,12.10
2024-02-17T05:07:18.582Z,12.88
2024-02-17T05:12:20.269Z,12.45
2024-02-17T05:17:21.973Z,11.13
2024-02-17T05:22:23.650Z,9.68
2024-02-17T05:27:25.219Z,7.75
2024-02-17T05:32:28.345Z,5.95
2024-02-17T05:37:29.950Z,5.28
2024-02-17T05:42:31.559Z,5.50
2024-02-17T05:47:33.197Z,5.20
2024-02-17T05:52:34.755Z,5.05
2024-02-17T05:57:36.361Z,4.97
2024-02-17T06:02:37.945Z,5.07
2024-02-17T06:07:39.657Z,5.35
2024-02-17T06:12:41.568Z,5.13
2024-02-17T06:17:44.510Z,5.00
2024-02-17T06:22:46.228Z,5.32
2024-02-17T06:27:47.875Z,5.88
2024-02-17T06:32:49.514Z,6.60
2024-02-17T06:37:51.128Z,6.15
2024-02-17T06:42:53.005Z,5.95
2024-02-17T06:47:54.587Z,6.65
2024-02-17T06:52:56.159Z,6.53
2024-02-17T06:57:57.750Z,6.75
2024-02-17T07:02:59.258Z,7.20
2024-02-17T07:08:01.505Z,9.55
2024-02-17T07:13:08.174Z,8.27
2024-02-17T07:18:09.950Z,9.02
2024-02-17T07:23:14.274Z,8.80
2024-02-17T07:28:15.918Z,9.90
2024-02-17T07:33:18.077Z,9.55
2024-02-17T07:38:19.744Z,9.38
2024-02-17T07:43:21.414Z,9.50
2024-02-17T07:48:23.214Z,9.77
2024-02-17T07:53:24.896Z,9.25
2024-02-17T07:58:26.410Z,9.85
2024-02-17T08:03:30.555Z,9.35
2024-02-17T08:08:32.553Z,8.73
2024-02-17T08:13:34.128Z,9.38
2024-02-17T08:18:36.041Z,10.25
2024-02-17T08:23:37.814Z,9.05
2024-02-17T08:28:39.748Z,9.93
2024-02-17T08:33:41.539Z,10.50
2024-02-17T08:38:43.198Z,9.32
2024-02-17T08:43:44.728Z,9.38
2024-02-17T08:48:46.418Z,8.68
2024-02-17T08:53:48.044Z,9.35
2024-02-17T08:58:49.650Z,9.70
2024-02-17T09:03:51.366Z,9.93
2024-02-17T09:08:53.043Z,9.38
2024-02-17T09:13:54.829Z,11.25
2024-02-17T09:18:56.499Z,10.55
2024-02-17T09:23:58.176Z,11.23
2024-02-17T09:28:59.680Z,12.05
2024-02-17T09:34:01.542Z,12.73
2024-02-17T09:39:03.967Z,12.82
2024-02-17T09:44:05.733Z,12.70
2024-02-17T09:49:08.704Z,12.68
2024-02-17T09:54:11.753Z,11.70
2024-02-17T09:59:14.556Z,13.63
2024-02-17T10:04:16.262Z,13.18
2024-02-17T10:09:22.326Z,9.93
2024-02-17T10:14:25.151Z,10.15
2024-02-17T10:19:27.012Z,10.15
2024-02-17T10:24:28.848Z,11.25
2024-02-17T10:29:30.622Z,10.43
2024-02-17T10:34:32.316Z,11.18
2024-02-17T10:39:35.008Z,10.60
2024-02-17T10:44:36.603Z,11.48
2024-02-17T10:49:54.951Z,11.25
2024-02-17T10:55:05.489Z,11.75
2024-02-17T11:00:09.498Z,11.75
2024-02-17T11:05:11.364Z,12.10
2024-02-17T11:10:14.455Z,12.43
2024-02-17T11:15:16.010Z,12.27
2024-02-17T11:20:18.954Z,11.63
2024-02-17T11:25:35.911Z,12.60
2024-02-17T11:30:48.718Z,13.43
2024-02-17T11:35:51.549Z,15.00
2024-02-17T11:40:58.600Z,15.30
2024-02-17T11:46:01.039Z,14.03
2024-02-17T11:51:27.064Z,15.38
2024-02-17T11:56:33.842Z,14.88
2024-02-17T12:01:35.474Z,16.13
2024-02-17T12:06:37.189Z,14.98
2024-02-17T12:11:40.551Z,15.43
2024-02-17T12:16:42.605Z,15.25
2024-02-17T12:21:45.879Z,17.10
2024-02-17T12:26:48.625Z,12.90
2024-02-17T12:31:52.961Z,13.68
2024-02-17T12:36:55.118Z,15.95
2024-02-17T12:42:06.882Z,14.38
2024-02-17T12:47:17.838Z,13.75
2024-02-17T12:52:20.634Z,14.95
2024-02-17T12:57:22.674Z,16.95
2024-02-17T13:02:24.308Z,16.33
2024-02-17T13:07:25.926Z,16.90
2024-02-17T13:12:27.499Z,16.35
2024-02-17T13:17:29.523Z,17.67
2024-02-17T13:22:31.277Z,16.58
2024-02-17T13:27:39.847Z,17.63
2024-02-17T13:32:45.450Z,19.38
2024-02-17T13:37:47.532Z,18.17
2024-02-17T13:42:49.182Z,18.40
2024-02-17T13:47:50.853Z,19.55
2024-02-17T13:52:53.786Z,20.48
2024-02-17T13:57:55.450Z,20.35
2024-02-17T14:02:57.764Z,21.33
2024-02-17T14:07:59.976Z,21.17
2024-02-17T14:13:01.978Z,21.83
2024-02-17T14:18:04.759Z,21.52
2024-02-17T14:23:06.580Z,21.30
2024-02-17T14:28:08.259Z,20.48
2024-02-17T14:33:11.461Z,21.73
2024-02-17T14:38:13.176Z,21.20
2024-02-17T14:43:15.130Z,22.52
2024-02-17T14:48:17.014Z,22.23
2024-02-17T14:53:18.764Z,20.50
2024-02-17T14:58:20.383Z,20.63
2024-02-17T15:03:22.950Z,19.50
2024-02-17T15:08:24.716Z,19.63
2024-02-17T15:13:27.658Z,19.85
2024-02-17T15:18:29.806Z,19.02
2024-02-17T15:23:32.796Z,23.05
2024-02-17T15:28:35.165Z,19.15
2024-02-17T15:33:36.932Z,18.75
2024-02-17T15:38:38.548Z,18.42
2024-02-17T15:43:40.154Z,17.25
2024-02-17T15:48:41.773Z,15.80
2024-02-17T15:53:43.415Z,16.45
2024-02-17T15:58:45.439Z,16.98
2024-02-17T16:03:47.290Z,13.85
2024-02-17T16:08:49.033Z,11.70
2024-02-17T16:13:50.619Z,12.57
2024-02-17T16:18:52.365Z,12.60
2024-02-17T16:23:55.765Z,12.73
2024-02-17T16:28:57.303Z,16.63
2024-02-17T16:34:02.067Z,19.00
2024-02-17T16:39:05.309Z,15.98
2024-02-17T16:44:07.316Z,21.25
2024-02-17T16:49:09.271Z,17.33
2024-02-17T16:54:10.908Z,14.07
2024-02-17T16:59:13.101Z,8.80
2024-02-17T17:04:14.884Z,14.98
2024-02-17T17:09:16.521Z,13.07
2024-02-17T17:14:18.154Z,17.90
2024-02-17T17:19:19.777Z,22.88
2024-02-17T17:24:21.636Z,11.38
2024-02-17T17:29:23.208Z,8.48
2024-02-17T17:34:24.948Z,9.55
2024-02-17T17:39:26.628Z,10.50
2024-02-17T17:44:28.166Z,9.63
2024-02-17T17:49:29.972Z,8.30
2024-02-17T17:54:31.714Z,9.45
2024-02-17T17:59:35.437Z,12.73
2024-02-17T18:04:37.341Z,13.48
2024-02-17T18:09:39.123Z,8.55
2024-02-17T18:14:41.766Z,9.60
2024-02-17T18:19:43.378Z,9.77
2024-02-17T18:24:45.559Z,8.63
2024-02-17T18:29:47.189Z,9.35
2024-02-17T18:34:49.160Z,8.75
2024-02-17T18:39:50.917Z,9.50
2024-02-17T18:44:52.562Z,9.30
2024-02-17T18:49:54.249Z,8.80
2024-02-17T18:54:56.440Z,9.48
2024-02-17T18:59:58.464Z,9.73
2024-02-17T19:05:00.166Z,7.90
2024-02-17T19:10:01.864Z,10.85
2024-02-17T19:15:04.244Z,8.98
2024-02-17T19:20:09.828Z,9.18
2024-02-17T19:25:11.592Z,8.75
2024-02-17T19:30:13.667Z,11.40
2024-02-17T19:35:15.405Z,14.98
2024-02-17T19:40:19.215Z,13.02
2024-02-17T19:45:21.010Z,14.25
2024-02-17T19:50:24.043Z,12.25
2024-02-17T19:55:25.757Z,12.30
2024-02-17T20:00:27.629Z,11.27
2024-02-17T20:05:29.868Z,10.43
2024-02-17T20:10:31.466Z,9.63
2024-02-17T20:15:33.054Z,11.02
2024-02-17T20:20:34.606Z,12.05
2024-02-17T20:25:36.165Z,11.77
2024-02-17T20:30:38.212Z,11.35
2024-02-17T20:35:39.952Z,11.63
2024-02-17T20:40:41.502Z,12.00
2024-02-17T20:45:44.684Z,14.18
2024-02-17T20:50:46.327Z,13.20
2024-02-17T20:55:48.226Z,15.00
2024-02-17T21:00:49.895Z,15.50
2024-02-17T21:05:51.818Z,16.98
2024-02-17T21:10:53.874Z,16.98
2024-02-17T21:15:55.602Z,19.02
2024-02-17T21:20:57.226Z,19.67
2024-02-17T21:25:58.838Z,20.23
2024-02-17T21:31:01.602Z,20.73
2024-02-17T21:36:03.301Z,21.10
2024-02-17T21:41:04.908Z,20.73
2024-02-17T21:46:07.324Z,20.00
2024-02-17T21:51:18.784Z,19.73
2024-02-17T21:56:20.568Z,19.60
2024-02-17T22:01:22.867Z,21.10
2024-02-17T22:06:24.609Z,20.02
2024-02-17T22:11:26.235Z,19.48
2024-02-17T22:16:27.894Z,20.30
2024-02-17T22:21:30.785Z,20.30
2024-02-17T22:26:32.974Z,18.67
2024-02-17T22:31:35.341Z,19.88
2024-02-17T22:36:37.701Z,19.83
2024-02-17T22:41:39.346Z,18.45
2024-02-17T22:46:40.892Z,17.95
2024-02-17T22:51:43.473Z,15.95
2024-02-17T22:56:45.059Z,15.73
2024-02-17T23:01:46.657Z,14.50
2024-02-17T23:06:48.928Z,15.27
2024-02-17T23:11:51.174Z,13.55
2024-02-17T23:16:53.587Z,12.45
2024-02-17T23:21:55.217Z,11.77
2024-02-17T23:26:56.836Z,10.27
2024-02-17T23:31:58.396Z,9.52
2024-02-17T23:37:00.174Z,9.73
2024-02-17T23:42:02.793Z,9.13
2024-02-17T23:47:04.556Z,10.00
2024-02-17T23:52:06.390Z,9.43
2024-02-17T23:57:08.156Z,8.80
